sensor_id;sensor_type;location;lat;lon;timestamp;temperature;humidity
19920;DHT22;10122;50.074;19.920;2022-10-16T00:01:16;15.60;99.90
19920;DHT22;10122;50.074;19.920;2022-10-16T00:03:43;15.60;99.90
19920;DHT22;10122;50.074;19.920;2022-10-16T00:06:10;15.50;99.90
19920;DHT22;10122;50.074;19.920;2022-10-16T00:08:37;15.50;99.90
19920;DHT22;10122;50.074;19.920;2022-10-16T00:11:09;15.40;99.90
19920;DHT22;10122;50.074;19.920;2022-10-16T00:13:37;15.40;99.90
19920;DHT22;10122;50.074;19.920;2022-10-16T00:16:04;15.40;99.90
19920;DHT22;10122;50.074;19.920;2022-10-16T00:18:30;15.40;99.90
19920;DHT22;10122;50.074;19.920;2022-10-16T00:21:04;15.30;99.90
19920;DHT22;10122;50.074;19.920;2022-10-16T00:23:31;15.30;99.90
19920;DHT22;10122;50.074;19.920;2022-10-16T00:25:59;15.30;99.90
19920;DHT22;10122;50.074;19.920;2022-10-16T00:28:26;15.20;99.90
19920;DHT22;10122;50.074;19.920;2022-10-16T00:30:52;15.20;99.90
19920;DHT22;10122;50.074;19.920;2022-10-16T00:33:19;15.20;99.90
19920;DHT22;10122;50.074;19.920;2022-10-16T00:35:45;15.20;99.90
19920;DHT22;10122;50.074;19.920;2022-10-16T00:38:10;15.20;99.90
19920;DHT22;10122;50.074;19.920;2022-10-16T00:40:36;15.20;99.90
19920;DHT22;10122;50.074;19.920;2022-10-16T00:43:02;15.20;99.90
19920;DHT22;10122;50.074;19.920;2022-10-16T00:45:28;15.20;99.90
19920;DHT22;10122;50.074;19.920;2022-10-16T00:47:55;15.20;99.90
19920;DHT22;10122;50.074;19.920;2022-10-16T00:50:28;15.20;99.90
19920;DHT22;10122;50.074;19.920;2022-10-16T00:52:55;15.10;99.90
19920;DHT22;10122;50.074;19.920;2022-10-16T00:55:22;15.10;99.90
19920;DHT22;10122;50.074;19.920;2022-10-16T00:57:49;15.10;99.90
19920;DHT22;10122;50.074;19.920;2022-10-16T01:00:19;15.10;99.90
19920;DHT22;10122;50.074;19.920;2022-10-16T01:02:51;15.10;99.90
19920;DHT22;10122;50.074;19.920;2022-10-16T01:05:17;15.10;99.90
19920;DHT22;10122;50.074;19.920;2022-10-16T01:10:52;15.20;99.90
19920;DHT22;10122;50.074;19.920;2022-10-16T01:14:02;15.10;99.90
19920;DHT22;10122;50.074;19.920;2022-10-16T01:16:19;15.10;99.90
19920;DHT22;10122;50.074;19.920;2022-10-16T01:21:26;15.00;99.90
19920;DHT22;10122;50.074;19.920;2022-10-16T01:32:36;15.20;99.90
19920;DHT22;10122;50.074;19.920;2022-10-16T01:35:08;15.20;99.90
19920;DHT22;10122;50.074;19.920;2022-10-16T01:40:39;15.20;99.90
19920;DHT22;10122;50.074;19.920;2022-10-16T01:43:08;15.20;99.90
19920;DHT22;10122;50.074;19.920;2022-10-16T01:45:37;15.20;99.90
19920;DHT22;10122;50.074;19.920;2022-10-16T01:48:05;15.10;99.90
19920;DHT22;10122;50.074;19.920;2022-10-16T01:50:37;15.10;99.90
19920;DHT22;10122;50.074;19.920;2022-10-16T01:53:05;15.10;99.90
19920;DHT22;10122;50.074;19.920;2022-10-16T01:55:37;15.10;99.90
19920;DHT22;10122;50.074;19.920;2022-10-16T01:58:06;15.10;99.90
19920;DHT22;10122;50.074;19.920;2022-10-16T02:00:34;15.10;99.90
19920;DHT22;10122;50.074;19.920;2022-10-16T02:03:02;15.10;99.90
19920;DHT22;10122;50.074;19.920;2022-10-16T02:05:39;15.10;99.90
19920;DHT22;10122;50.074;19.920;2022-10-16T02:08:06;15.20;99.90
19920;DHT22;10122;50.074;19.920;2022-10-16T02:10:34;15.20;99.90
19920;DHT22;10122;50.074;19.920;2022-10-16T02:13:10;15.20;99.90
19920;DHT22;10122;50.074;19.920;2022-10-16T02:15:37;15.20;99.90
19920;DHT22;10122;50.074;19.920;2022-10-16T02:18:07;15.20;99.90
19920;DHT22;10122;50.074;19.920;2022-10-16T02:20:54;15.20;99.90
19920;DHT22;10122;50.074;19.920;2022-10-16T02:23:45;15.20;99.90
19920;DHT22;10122;50.074;19.920;2022-10-16T02:26:15;15.20;99.90
19920;DHT22;10122;50.074;19.920;2022-10-16T02:28:48;15.10;99.90
19920;DHT22;10122;50.074;19.920;2022-10-16T02:31:25;15.00;99.90
19920;DHT22;10122;50.074;19.920;2022-10-16T02:33:55;14.90;99.90
19920;DHT22;10122;50.074;19.920;2022-10-16T02:36:21;15.00;99.90
19920;DHT22;10122;50.074;19.920;2022-10-16T02:38:47;15.00;99.90
19920;DHT22;10122;50.074;19.920;2022-10-16T02:41:14;15.00;99.90
19920;DHT22;10122;50.074;19.920;2022-10-16T02:43:39;15.00;99.90
19920;DHT22;10122;50.074;19.920;2022-10-16T02:46:05;15.00;99.90
19920;DHT22;10122;50.074;19.920;2022-10-16T02:48:31;14.90;99.90
19920;DHT22;10122;50.074;19.920;2022-10-16T02:50:57;14.80;99.90
19920;DHT22;10122;50.074;19.920;2022-10-16T02:53:22;14.80;99.90
19920;DHT22;10122;50.074;19.920;2022-10-16T02:55:48;14.70;99.90
19920;DHT22;10122;50.074;19.920;2022-10-16T02:58:14;14.60;99.90
19920;DHT22;10122;50.074;19.920;2022-10-16T03:00:39;14.60;99.90
19920;DHT22;10122;50.074;19.920;2022-10-16T03:03:05;14.60;99.90
19920;DHT22;10122;50.074;19.920;2022-10-16T03:05:31;14.60;99.90
19920;DHT22;10122;50.074;19.920;2022-10-16T03:07:56;14.60;99.90
19920;DHT22;10122;50.074;19.920;2022-10-16T03:10:25;14.60;99.90
19920;DHT22;10122;50.074;19.920;2022-10-16T03:12:51;14.60;99.90
19920;DHT22;10122;50.074;19.920;2022-10-16T03:15:17;14.50;99.90
19920;DHT22;10122;50.074;19.920;2022-10-16T03:17:42;14.60;99.90
19920;DHT22;10122;50.074;19.920;2022-10-16T03:20:09;14.60;99.90
19920;DHT22;10122;50.074;19.920;2022-10-16T03:22:34;14.60;99.90
19920;DHT22;10122;50.074;19.920;2022-10-16T03:25:00;14.60;99.90
19920;DHT22;10122;50.074;19.920;2022-10-16T03:27:26;14.60;99.90
19920;DHT22;10122;50.074;19.920;2022-10-16T03:29:52;14.60;99.90
19920;DHT22;10122;50.074;19.920;2022-10-16T03:32:17;14.60;99.90
19920;DHT22;10122;50.074;19.920;2022-10-16T03:34:43;14.60;99.90
19920;DHT22;10122;50.074;19.920;2022-10-16T03:37:09;14.50;99.90
19920;DHT22;10122;50.074;19.920;2022-10-16T03:39:35;14.50;99.90
19920;DHT22;10122;50.074;19.920;2022-10-16T03:42:01;14.50;99.90
19920;DHT22;10122;50.074;19.920;2022-10-16T03:44:26;14.40;99.90
19920;DHT22;10122;50.074;19.920;2022-10-16T03:46:52;14.40;99.90
19920;DHT22;10122;50.074;19.920;2022-10-16T03:49:18;14.40;99.90
19920;DHT22;10122;50.074;19.920;2022-10-16T03:51:43;14.40;99.90
19920;DHT22;10122;50.074;19.920;2022-10-16T03:54:10;14.40;99.90
19920;DHT22;10122;50.074;19.920;2022-10-16T03:56:35;14.30;99.90
19920;DHT22;10122;50.074;19.920;2022-10-16T03:59:01;14.30;99.90
19920;DHT22;10122;50.074;19.920;2022-10-16T04:01:27;14.30;99.90
19920;DHT22;10122;50.074;19.920;2022-10-16T04:03:52;14.20;99.90
19920;DHT22;10122;50.074;19.920;2022-10-16T04:06:18;14.20;99.90
19920;DHT22;10122;50.074;19.920;2022-10-16T04:08:44;14.20;99.90
19920;DHT22;10122;50.074;19.920;2022-10-16T04:11:10;14.20;99.90
19920;DHT22;10122;50.074;19.920;2022-10-16T04:13:36;14.20;99.90
19920;DHT22;10122;50.074;19.920;2022-10-16T04:16:02;14.20;99.90
19920;DHT22;10122;50.074;19.920;2022-10-16T04:18:27;14.20;99.90
19920;DHT22;10122;50.074;19.920;2022-10-16T04:20:54;14.20;99.90
19920;DHT22;10122;50.074;19.920;2022-10-16T04:23:20;14.20;99.90
19920;DHT22;10122;50.074;19.920;2022-10-16T04:25:45;14.10;99.90
19920;DHT22;10122;50.074;19.920;2022-10-16T04:28:11;14.10;99.90
19920;DHT22;10122;50.074;19.920;2022-10-16T04:30:38;14.10;99.90
19920;DHT22;10122;50.074;19.920;2022-10-16T04:33:04;14.20;99.90
19920;DHT22;10122;50.074;19.920;2022-10-16T04:35:30;14.20;99.90
19920;DHT22;10122;50.074;19.920;2022-10-16T04:37:57;14.10;99.90
19920;DHT22;10122;50.074;19.920;2022-10-16T04:40:23;14.00;99.90
19920;DHT22;10122;50.074;19.920;2022-10-16T04:42:49;13.90;99.90
19920;DHT22;10122;50.074;19.920;2022-10-16T04:45:15;13.90;99.90
19920;DHT22;10122;50.074;19.920;2022-10-16T04:47:41;13.80;99.90
19920;DHT22;10122;50.074;19.920;2022-10-16T04:50:07;13.70;99.90
19920;DHT22;10122;50.074;19.920;2022-10-16T04:52:33;13.70;99.90
19920;DHT22;10122;50.074;19.920;2022-10-16T04:54:58;13.70;99.90
19920;DHT22;10122;50.074;19.920;2022-10-16T04:57:27;13.70;99.90
19920;DHT22;10122;50.074;19.920;2022-10-16T04:59:53;13.70;99.90
19920;DHT22;10122;50.074;19.920;2022-10-16T05:02:19;13.70;99.90
19920;DHT22;10122;50.074;19.920;2022-10-16T05:04:44;13.70;99.90
19920;DHT22;10122;50.074;19.920;2022-10-16T05:07:10;13.60;99.90
19920;DHT22;10122;50.074;19.920;2022-10-16T05:09:36;13.50;99.90
19920;DHT22;10122;50.074;19.920;2022-10-16T05:12:01;13.50;99.90
19920;DHT22;10122;50.074;19.920;2022-10-16T05:14:29;13.50;99.90
19920;DHT22;10122;50.074;19.920;2022-10-16T05:16:54;13.40;99.90
19920;DHT22;10122;50.074;19.920;2022-10-16T05:19:20;13.50;99.90
19920;DHT22;10122;50.074;19.920;2022-10-16T05:21:46;13.50;99.90
19920;DHT22;10122;50.074;19.920;2022-10-16T05:24:11;13.40;99.90
19920;DHT22;10122;50.074;19.920;2022-10-16T05:26:37;13.50;99.90
19920;DHT22;10122;50.074;19.920;2022-10-16T05:29:03;13.60;99.90
19920;DHT22;10122;50.074;19.920;2022-10-16T05:31:29;13.50;99.90
19920;DHT22;10122;50.074;19.920;2022-10-16T05:33:59;13.50;99.90
19920;DHT22;10122;50.074;19.920;2022-10-16T05:36:25;13.50;99.90
19920;DHT22;10122;50.074;19.920;2022-10-16T05:38:51;13.60;99.90
19920;DHT22;10122;50.074;19.920;2022-10-16T05:41:17;13.70;99.90
19920;DHT22;10122;50.074;19.920;2022-10-16T05:43:47;13.90;99.90
19920;DHT22;10122;50.074;19.920;2022-10-16T05:46:14;14.10;99.90
19920;DHT22;10122;50.074;19.920;2022-10-16T05:48:40;14.50;99.90
19920;DHT22;10122;50.074;19.920;2022-10-16T05:51:07;14.80;99.90
19920;DHT22;10122;50.074;19.920;2022-10-16T05:53:35;15.00;99.90
19920;DHT22;10122;50.074;19.920;2022-10-16T05:56:01;15.20;99.90
19920;DHT22;10122;50.074;19.920;2022-10-16T05:58:33;15.20;99.90
19920;DHT22;10122;50.074;19.920;2022-10-16T06:01:05;15.20;99.90
19920;DHT22;10122;50.074;19.920;2022-10-16T06:03:33;15.20;99.90
19920;DHT22;10122;50.074;19.920;2022-10-16T06:05:59;15.10;99.90
19920;DHT22;10122;50.074;19.920;2022-10-16T06:08:24;15.00;99.90
19920;DHT22;10122;50.074;19.920;2022-10-16T06:11:03;14.90;99.90
19920;DHT22;10122;50.074;19.920;2022-10-16T06:13:30;14.90;99.90
19920;DHT22;10122;50.074;19.920;2022-10-16T06:15:58;14.90;99.90
19920;DHT22;10122;50.074;19.920;2022-10-16T06:18:24;14.90;99.90
19920;DHT22;10122;50.074;19.920;2022-10-16T06:20:50;14.80;99.90
19920;DHT22;10122;50.074;19.920;2022-10-16T06:23:16;14.80;99.90
19920;DHT22;10122;50.074;19.920;2022-10-16T06:25:41;14.80;99.90
19920;DHT22;10122;50.074;19.920;2022-10-16T06:28:07;14.80;99.90
19920;DHT22;10122;50.074;19.920;2022-10-16T06:30:32;14.80;99.90
19920;DHT22;10122;50.074;19.920;2022-10-16T06:32:58;14.80;99.90
19920;DHT22;10122;50.074;19.920;2022-10-16T06:35:24;14.90;99.90
19920;DHT22;10122;50.074;19.920;2022-10-16T06:37:49;14.90;99.90
19920;DHT22;10122;50.074;19.920;2022-10-16T06:40:15;15.00;99.90
19920;DHT22;10122;50.074;19.920;2022-10-16T06:42:42;15.10;99.90
19920;DHT22;10122;50.074;19.920;2022-10-16T06:45:08;15.20;99.90
19920;DHT22;10122;50.074;19.920;2022-10-16T06:47:33;15.30;99.90
19920;DHT22;10122;50.074;19.920;2022-10-16T06:49:59;15.30;99.90
19920;DHT22;10122;50.074;19.920;2022-10-16T06:52:27;15.40;99.90
19920;DHT22;10122;50.074;19.920;2022-10-16T06:54:53;15.50;99.90
19920;DHT22;10122;50.074;19.920;2022-10-16T06:57:19;15.70;99.90
19920;DHT22;10122;50.074;19.920;2022-10-16T06:59:44;15.80;99.90
19920;DHT22;10122;50.074;19.920;2022-10-16T07:02:10;15.90;99.90
19920;DHT22;10122;50.074;19.920;2022-10-16T07:04:36;15.90;99.90
19920;DHT22;10122;50.074;19.920;2022-10-16T07:07:02;16.00;99.90
19920;DHT22;10122;50.074;19.920;2022-10-16T07:09:28;16.00;99.90
19920;DHT22;10122;50.074;19.920;2022-10-16T07:11:53;16.00;99.90
19920;DHT22;10122;50.074;19.920;2022-10-16T07:14:20;16.10;99.90
19920;DHT22;10122;50.074;19.920;2022-10-16T07:16:47;16.10;99.90
19920;DHT22;10122;50.074;19.920;2022-10-16T07:19:14;16.20;99.90
19920;DHT22;10122;50.074;19.920;2022-10-16T07:21:41;16.20;99.90
19920;DHT22;10122;50.074;19.920;2022-10-16T07:24:11;16.20;99.90
19920;DHT22;10122;50.074;19.920;2022-10-16T07:26:38;16.40;99.90
19920;DHT22;10122;50.074;19.920;2022-10-16T07:29:25;16.60;99.90
19920;DHT22;10122;50.074;19.920;2022-10-16T07:31:51;16.90;99.90
19920;DHT22;10122;50.074;19.920;2022-10-16T07:34:18;17.10;99.90
19920;DHT22;10122;50.074;19.920;2022-10-16T07:36:44;17.20;99.90
19920;DHT22;10122;50.074;19.920;2022-10-16T07:39:09;17.30;99.90
19920;DHT22;10122;50.074;19.920;2022-10-16T07:41:35;17.30;99.90
19920;DHT22;10122;50.074;19.920;2022-10-16T07:44:02;17.30;99.90
19920;DHT22;10122;50.074;19.920;2022-10-16T07:46:28;17.40;99.90
19920;DHT22;10122;50.074;19.920;2022-10-16T07:48:54;17.40;99.90
19920;DHT22;10122;50.074;19.920;2022-10-16T07:51:22;17.50;99.90
19920;DHT22;10122;50.074;19.920;2022-10-16T07:53:48;17.50;99.90
19920;DHT22;10122;50.074;19.920;2022-10-16T07:56:15;17.50;99.90
19920;DHT22;10122;50.074;19.920;2022-10-16T07:58:41;17.50;99.90
19920;DHT22;10122;50.074;19.920;2022-10-16T08:01:12;17.60;99.90
19920;DHT22;10122;50.074;19.920;2022-10-16T08:03:41;17.60;99.90
19920;DHT22;10122;50.074;19.920;2022-10-16T08:06:07;17.60;99.90
19920;DHT22;10122;50.074;19.920;2022-10-16T08:08:32;17.70;99.90
19920;DHT22;10122;50.074;19.920;2022-10-16T08:10:58;17.80;99.90
19920;DHT22;10122;50.074;19.920;2022-10-16T08:13:24;18.00;99.90
19920;DHT22;10122;50.074;19.920;2022-10-16T08:15:50;18.30;99.90
19920;DHT22;10122;50.074;19.920;2022-10-16T08:18:16;18.60;99.90
19920;DHT22;10122;50.074;19.920;2022-10-16T08:20:42;18.90;99.90
19920;DHT22;10122;50.074;19.920;2022-10-16T08:23:11;19.30;99.90
19920;DHT22;10122;50.074;19.920;2022-10-16T08:25:37;19.60;99.90
19920;DHT22;10122;50.074;19.920;2022-10-16T08:28:07;19.80;99.90
19920;DHT22;10122;50.074;19.920;2022-10-16T08:30:33;19.80;99.90
19920;DHT22;10122;50.074;19.920;2022-10-16T08:33:00;19.80;99.90
19920;DHT22;10122;50.074;19.920;2022-10-16T08:35:25;19.80;99.90
19920;DHT22;10122;50.074;19.920;2022-10-16T08:37:51;19.90;99.90
19920;DHT22;10122;50.074;19.920;2022-10-16T08:40:24;20.00;99.90
19920;DHT22;10122;50.074;19.920;2022-10-16T08:48:55;21.00;99.90
19920;DHT22;10122;50.074;19.920;2022-10-16T08:51:29;21.40;99.90
19920;DHT22;10122;50.074;19.920;2022-10-16T08:54:05;21.70;99.90
19920;DHT22;10122;50.074;19.920;2022-10-16T08:56:31;22.00;99.90
19920;DHT22;10122;50.074;19.920;2022-10-16T08:58:59;22.30;99.90
19920;DHT22;10122;50.074;19.920;2022-10-16T09:01:50;22.50;99.90
19920;DHT22;10122;50.074;19.920;2022-10-16T09:04:49;22.60;99.20
19920;DHT22;10122;50.074;19.920;2022-10-16T09:07:39;22.70;98.10
19920;DHT22;10122;50.074;19.920;2022-10-16T09:10:25;22.60;98.00
19920;DHT22;10122;50.074;19.920;2022-10-16T09:13:20;22.70;97.80
19920;DHT22;10122;50.074;19.920;2022-10-16T09:16:14;22.60;97.80
19920;DHT22;10122;50.074;19.920;2022-10-16T09:18:48;22.60;97.70
19920;DHT22;10122;50.074;19.920;2022-10-16T09:21:24;22.50;97.70
19920;DHT22;10122;50.074;19.920;2022-10-16T09:23:51;22.40;97.50
19920;DHT22;10122;50.074;19.920;2022-10-16T09:26:17;22.30;97.80
19920;DHT22;10122;50.074;19.920;2022-10-16T09:28:45;22.20;97.40
19920;DHT22;10122;50.074;19.920;2022-10-16T09:31:20;22.20;97.60
19920;DHT22;10122;50.074;19.920;2022-10-16T09:33:51;22.20;97.60
19920;DHT22;10122;50.074;19.920;2022-10-16T09:36:18;22.20;97.50
19920;DHT22;10122;50.074;19.920;2022-10-16T09:38:45;22.20;97.50
19920;DHT22;10122;50.074;19.920;2022-10-16T09:41:19;22.20;97.70
19920;DHT22;10122;50.074;19.920;2022-10-16T09:43:46;22.10;97.80
19920;DHT22;10122;50.074;19.920;2022-10-16T09:46:33;22.00;97.90
19920;DHT22;10122;50.074;19.920;2022-10-16T09:49:05;22.00;98.10
19920;DHT22;10122;50.074;19.920;2022-10-16T09:51:43;22.00;98.40
19920;DHT22;10122;50.074;19.920;2022-10-16T09:56:36;22.00;98.70
19920;DHT22;10122;50.074;19.920;2022-10-16T09:59:28;22.00;99.70
19920;DHT22;10122;50.074;19.920;2022-10-16T10:01:56;22.00;99.20
19920;DHT22;10122;50.074;19.920;2022-10-16T10:04:39;22.00;99.10
19920;DHT22;10122;50.074;19.920;2022-10-16T10:07:06;22.10;99.00
19920;DHT22;10122;50.074;19.920;2022-10-16T10:09:43;22.10;99.90
19920;DHT22;10122;50.074;19.920;2022-10-16T10:12:23;22.10;99.90
19920;DHT22;10122;50.074;19.920;2022-10-16T10:14:51;22.10;99.90
19920;DHT22;10122;50.074;19.920;2022-10-16T10:17:28;22.20;99.90
19920;DHT22;10122;50.074;19.920;2022-10-16T10:19:58;22.10;99.90
19920;DHT22;10122;50.074;19.920;2022-10-16T10:22:45;22.20;99.90
19920;DHT22;10122;50.074;19.920;2022-10-16T10:40:01;22.40;98.70
19920;DHT22;10122;50.074;19.920;2022-10-16T10:44:55;22.40;99.40
19920;DHT22;10122;50.074;19.920;2022-10-16T10:56:06;22.70;98.60
19920;DHT22;10122;50.074;19.920;2022-10-16T10:59:02;22.80;98.60
19920;DHT22;10122;50.074;19.920;2022-10-16T11:04:32;22.90;97.20
19920;DHT22;10122;50.074;19.920;2022-10-16T11:07:03;22.90;99.00
19920;DHT22;10122;50.074;19.920;2022-10-16T11:09:47;22.90;99.90
19920;DHT22;10122;50.074;19.920;2022-10-16T11:12:36;22.90;99.80
19920;DHT22;10122;50.074;19.920;2022-10-16T11:15:15;22.80;99.60
19920;DHT22;10122;50.074;19.920;2022-10-16T11:18:11;22.70;99.90
19920;DHT22;10122;50.074;19.920;2022-10-16T11:21:05;22.80;99.90
19920;DHT22;10122;50.074;19.920;2022-10-16T11:26:19;22.60;99.90
19920;DHT22;10122;50.074;19.920;2022-10-16T11:28:49;22.60;99.90
19920;DHT22;10122;50.074;19.920;2022-10-16T11:31:22;22.50;99.90
19920;DHT22;10122;50.074;19.920;2022-10-16T11:36:47;22.40;99.90
19920;DHT22;10122;50.074;19.920;2022-10-16T11:39:22;22.40;99.90
19920;DHT22;10122;50.074;19.920;2022-10-16T11:47:33;22.20;99.90
19920;DHT22;10122;50.074;19.920;2022-10-16T11:50:06;22.20;99.90
19920;DHT22;10122;50.074;19.920;2022-10-16T11:52:44;22.20;99.90
19920;DHT22;10122;50.074;19.920;2022-10-16T11:55:21;22.20;99.90
19920;DHT22;10122;50.074;19.920;2022-10-16T11:57:59;22.20;99.90
19920;DHT22;10122;50.074;19.920;2022-10-16T12:00:37;22.20;99.90
19920;DHT22;10122;50.074;19.920;2022-10-16T12:05:55;22.20;99.90
19920;DHT22;10122;50.074;19.920;2022-10-16T12:08:24;22.10;99.90
19920;DHT22;10122;50.074;19.920;2022-10-16T12:10:50;22.10;99.90
19920;DHT22;10122;50.074;19.920;2022-10-16T12:13:35;22.10;99.90
19920;DHT22;10122;50.074;19.920;2022-10-16T12:18:41;22.10;99.90
19920;DHT22;10122;50.074;19.920;2022-10-16T12:21:08;22.10;99.90
19920;DHT22;10122;50.074;19.920;2022-10-16T12:23:46;22.10;99.90
19920;DHT22;10122;50.074;19.920;2022-10-16T12:26:13;22.10;99.90
19920;DHT22;10122;50.074;19.920;2022-10-16T12:28:38;22.10;99.90
19920;DHT22;10122;50.074;19.920;2022-10-16T12:31:07;22.20;99.90
19920;DHT22;10122;50.074;19.920;2022-10-16T12:33:37;22.20;99.90
19920;DHT22;10122;50.074;19.920;2022-10-16T12:36:16;22.20;99.90
19920;DHT22;10122;50.074;19.920;2022-10-16T12:38:52;22.20;99.90
19920;DHT22;10122;50.074;19.920;2022-10-16T12:41:27;22.30;99.90
19920;DHT22;10122;50.074;19.920;2022-10-16T12:43:53;22.30;99.90
19920;DHT22;10122;50.074;19.920;2022-10-16T12:46:24;22.30;99.90
19920;DHT22;10122;50.074;19.920;2022-10-16T12:48:50;22.30;99.90
19920;DHT22;10122;50.074;19.920;2022-10-16T13:02:44;22.20;99.90
19920;DHT22;10122;50.074;19.920;2022-10-16T13:08:54;22.20;99.90
19920;DHT22;10122;50.074;19.920;2022-10-16T13:18:02;22.30;99.90
19920;DHT22;10122;50.074;19.920;2022-10-16T13:20:46;22.30;99.90
19920;DHT22;10122;50.074;19.920;2022-10-16T13:28:37;22.10;99.90
19920;DHT22;10122;50.074;19.920;2022-10-16T13:31:04;22.10;99.90
19920;DHT22;10122;50.074;19.920;2022-10-16T13:33:34;22.10;99.90
19920;DHT22;10122;50.074;19.920;2022-10-16T13:36:01;22.00;99.90
19920;DHT22;10122;50.074;19.920;2022-10-16T13:38:30;22.00;99.90
19920;DHT22;10122;50.074;19.920;2022-10-16T13:41:17;22.00;99.90
19920;DHT22;10122;50.074;19.920;2022-10-16T13:43:49;21.90;99.90
19920;DHT22;10122;50.074;19.920;2022-10-16T13:48:43;21.90;99.90
19920;DHT22;10122;50.074;19.920;2022-10-16T13:51:17;21.80;99.90
19920;DHT22;10122;50.074;19.920;2022-10-16T13:53:44;21.80;99.90
19920;DHT22;10122;50.074;19.920;2022-10-16T13:56:12;21.70;99.90
19920;DHT22;10122;50.074;19.920;2022-10-16T13:58:39;21.70;99.90
19920;DHT22;10122;50.074;19.920;2022-10-16T14:01:27;21.70;99.90
19920;DHT22;10122;50.074;19.920;2022-10-16T14:03:52;21.70;99.90
19920;DHT22;10122;50.074;19.920;2022-10-16T14:06:21;21.70;99.90
19920;DHT22;10122;50.074;19.920;2022-10-16T14:08:59;21.70;99.90
19920;DHT22;10122;50.074;19.920;2022-10-16T14:11:25;21.70;99.90
19920;DHT22;10122;50.074;19.920;2022-10-16T14:13:52;21.70;99.90
19920;DHT22;10122;50.074;19.920;2022-10-16T14:16:25;21.60;99.90
19920;DHT22;10122;50.074;19.920;2022-10-16T14:19:03;21.60;99.90
19920;DHT22;10122;50.074;19.920;2022-10-16T14:21:32;21.60;99.90
19920;DHT22;10122;50.074;19.920;2022-10-16T14:23:58;21.50;99.90
19920;DHT22;10122;50.074;19.920;2022-10-16T14:26:26;21.50;99.90
19920;DHT22;10122;50.074;19.920;2022-10-16T14:29:11;21.50;99.90
19920;DHT22;10122;50.074;19.920;2022-10-16T14:31:37;21.40;99.90
19920;DHT22;10122;50.074;19.920;2022-10-16T14:34:05;21.40;99.90
19920;DHT22;10122;50.074;19.920;2022-10-16T14:36:48;21.30;99.90
19920;DHT22;10122;50.074;19.920;2022-10-16T14:39:20;21.30;99.90
19920;DHT22;10122;50.074;19.920;2022-10-16T14:41:48;21.30;99.90
19920;DHT22;10122;50.074;19.920;2022-10-16T14:44:16;21.30;99.90
19920;DHT22;10122;50.074;19.920;2022-10-16T14:46:43;21.20;99.90
19920;DHT22;10122;50.074;19.920;2022-10-16T14:51:36;21.20;99.90
19920;DHT22;10122;50.074;19.920;2022-10-16T14:54:02;21.30;99.90
19920;DHT22;10122;50.074;19.920;2022-10-16T14:56:56;21.20;99.90
19920;DHT22;10122;50.074;19.920;2022-10-16T14:59:40;21.10;99.90
19920;DHT22;10122;50.074;19.920;2022-10-16T15:04:50;21.10;99.90
19920;DHT22;10122;50.074;19.920;2022-10-16T15:07:16;21.10;99.90
19920;DHT22;10122;50.074;19.920;2022-10-16T15:09:42;21.10;99.90
19920;DHT22;10122;50.074;19.920;2022-10-16T15:12:08;21.10;99.90
19920;DHT22;10122;50.074;19.920;2022-10-16T15:14:33;21.10;99.90
19920;DHT22;10122;50.074;19.920;2022-10-16T15:16:59;21.00;99.90
19920;DHT22;10122;50.074;19.920;2022-10-16T15:19:25;21.00;99.90
19920;DHT22;10122;50.074;19.920;2022-10-16T15:21:50;21.00;99.90
19920;DHT22;10122;50.074;19.920;2022-10-16T15:24:17;20.90;99.90
19920;DHT22;10122;50.074;19.920;2022-10-16T15:26:43;20.90;99.90
19920;DHT22;10122;50.074;19.920;2022-10-16T15:29:11;20.90;99.90
19920;DHT22;10122;50.074;19.920;2022-10-16T15:31:37;20.80;99.90
19920;DHT22;10122;50.074;19.920;2022-10-16T15:34:03;20.80;99.90
19920;DHT22;10122;50.074;19.920;2022-10-16T15:36:37;20.80;99.90
19920;DHT22;10122;50.074;19.920;2022-10-16T15:39:13;20.70;99.90
19920;DHT22;10122;50.074;19.920;2022-10-16T15:41:39;20.70;99.90
19920;DHT22;10122;50.074;19.920;2022-10-16T15:44:05;20.70;99.90
19920;DHT22;10122;50.074;19.920;2022-10-16T15:46:31;20.60;99.90
19920;DHT22;10122;50.074;19.920;2022-10-16T15:48:59;20.50;99.90
19920;DHT22;10122;50.074;19.920;2022-10-16T15:51:25;20.50;99.90
19920;DHT22;10122;50.074;19.920;2022-10-16T15:53:56;20.50;99.90
19920;DHT22;10122;50.074;19.920;2022-10-16T15:56:22;20.40;99.90
19920;DHT22;10122;50.074;19.920;2022-10-16T15:58:51;20.40;99.90
19920;DHT22;10122;50.074;19.920;2022-10-16T16:01:17;20.30;99.90
19920;DHT22;10122;50.074;19.920;2022-10-16T16:03:42;20.30;99.90
19920;DHT22;10122;50.074;19.920;2022-10-16T16:06:11;20.30;99.90
19920;DHT22;10122;50.074;19.920;2022-10-16T16:08:38;20.20;99.90
19920;DHT22;10122;50.074;19.920;2022-10-16T16:11:06;20.20;99.90
19920;DHT22;10122;50.074;19.920;2022-10-16T16:13:33;20.20;99.90
19920;DHT22;10122;50.074;19.920;2022-10-16T16:15:59;20.20;99.90
19920;DHT22;10122;50.074;19.920;2022-10-16T16:18:25;20.10;99.90
19920;DHT22;10122;50.074;19.920;2022-10-16T16:20:52;20.10;99.90
19920;DHT22;10122;50.074;19.920;2022-10-16T16:23:17;20.10;99.90
19920;DHT22;10122;50.074;19.920;2022-10-16T16:25:44;20.00;99.90
19920;DHT22;10122;50.074;19.920;2022-10-16T16:28:10;20.00;99.90
19920;DHT22;10122;50.074;19.920;2022-10-16T16:30:40;19.90;99.90
19920;DHT22;10122;50.074;19.920;2022-10-16T16:33:06;19.90;99.90
19920;DHT22;10122;50.074;19.920;2022-10-16T16:35:31;19.80;99.90
19920;DHT22;10122;50.074;19.920;2022-10-16T16:37:57;19.80;99.90
19920;DHT22;10122;50.074;19.920;2022-10-16T16:40:23;19.70;99.90
19920;DHT22;10122;50.074;19.920;2022-10-16T16:42:49;19.70;99.90
19920;DHT22;10122;50.074;19.920;2022-10-16T16:45:14;19.60;99.90
19920;DHT22;10122;50.074;19.920;2022-10-16T16:47:40;19.60;99.90
19920;DHT22;10122;50.074;19.920;2022-10-16T16:50:06;19.60;99.90
19920;DHT22;10122;50.074;19.920;2022-10-16T16:52:34;19.60;99.90
19920;DHT22;10122;50.074;19.920;2022-10-16T16:54:59;19.50;99.90
19920;DHT22;10122;50.074;19.920;2022-10-16T16:57:26;19.50;99.90
19920;DHT22;10122;50.074;19.920;2022-10-16T16:59:52;19.50;99.90
19920;DHT22;10122;50.074;19.920;2022-10-16T17:02:17;19.50;99.90
19920;DHT22;10122;50.074;19.920;2022-10-16T17:04:43;19.40;99.90
19920;DHT22;10122;50.074;19.920;2022-10-16T17:07:09;19.40;99.90
19920;DHT22;10122;50.074;19.920;2022-10-16T17:09:35;19.30;99.90
19920;DHT22;10122;50.074;19.920;2022-10-16T17:12:01;19.30;99.90
19920;DHT22;10122;50.074;19.920;2022-10-16T17:14:26;19.30;99.90